Stations météo

réclame
Mon MeteoGroup
Uccle, Belgique (6447): Température de l'air & dewpoint: 17.09.2019 07:00:00 - 23.09.2019 07:00:00 (CEST)Uccle, Belgique (6447): Vitesse du vent & gusts: 17.09.2019 07:00:00 - 23.09.2019 07:00:00 (CEST)Uccle, Belgique (6447): Direction du vent: 17.09.2019 07:00:00 - 23.09.2019 07:00:00 (CEST)Uccle, Belgique (6447): reduced air pressure: 17.09.2019 07:00:00 - 23.09.2019 07:00:00 (CEST)Uccle, Belgique (6447): Ensoleillement: 17.09.2019 07:00:00 - 23.09.2019 07:00:00 (CEST)Uccle, Belgique (6447): Quantités de précipitations: 17.09.2019 07:00:00 - 23.09.2019 07:00:00 (CEST)
Date & Time tt [°C] td [°C] ff [km/h] ff [knt] fx [km/h] fx [knt] dd ppp [hPa] sd [min] rr [mm]
23.09.2019 07:00:00 14,7 13,6 11 6 21 11 SSW 1011,8 0 0,0
23.09.2019 06:00:00 15,0 14,0 10 5 19 11 S 1011,6 0 0,0
23.09.2019 05:00:00 15,1 14,2 11 6 19 11 S 1011,3 0 0,0
23.09.2019 04:00:00 15,2 14,2 10 5 20 11 S 1011,1 0 0,0
23.09.2019 03:00:00 15,0 14,2 11 6 19 11 S 1011,2 0 0,0
23.09.2019 02:00:00 15,0 14,1 11 6 23 13 S 1010,8 0 0,0
23.09.2019 01:00:00 15,0 14,1 12 7 24 13 S 1010,7 0 0,9
23.09.2019 00:00:00 15,2 14,2 11 6 26 14 S 1010,4 0 0,0
22.09.2019 23:00:00 15,6 14,6 11 6 18 10 S 1009,8 0 0,0
22.09.2019 22:00:00 16,1 15,1 9 5 20 11 SSW 1009,5 0 0,0
22.09.2019 21:00:00 16,3 15,1 8 5 20 11 SW 1008,9 0 0,4
22.09.2019 20:00:00 16,7 15,5 7 4 29 15 WSW 1008,3 0 3,0
22.09.2019 19:00:00 18,9 17,1 10 5 58 31 SW 1007,2 0 1,1
22.09.2019 18:00:00 23,8 14,1 18 10 34 18 SSW 1005,7 0 0,0
22.09.2019 17:00:00 25,1 13,6 18 10 35 19 S 1005,4 26 0,0
22.09.2019 16:00:00 25,8 14,0 16 8 38 21 S 1005,4 8 0,0
22.09.2019 15:00:00 25,6 13,5 16 9 36 19 S 1005,6 21 0,0
22.09.2019 14:00:00 25,2 14,2 11 6 31 17 S 1005,9 40 0,0
22.09.2019 13:00:00 23,4 13,3 21 11 37 20 S 1006,4 8 0,0
22.09.2019 12:00:00 22,2 13,0 16 9 37 20 SSE 1006,7 0 0,0
22.09.2019 11:00:00 21,7 11,7 20 11 35 19 SSE 1007,0 56 0,0
22.09.2019 10:00:00 19,1 10,1 22 12 37 20 SSE 1007,2 56 0,0
22.09.2019 09:00:00 17,3 8,7 20 11 32 17 SSE 1007,3 51 0,0
22.09.2019 08:00:00 17,0 7,8 22 12 38 20 SSE 1007,4 0 0,0
22.09.2019 07:00:00 17,2 6,9 23 12 32 18 SSE 1007,5 0 0,0
22.09.2019 06:00:00 17,3 5,9 24 13 34 18 SE 1008,0 0 0,0
22.09.2019 05:00:00 17,9 5,4 22 12 - - SE 1008,4 0 0,0
22.09.2019 04:00:00 18,1 5,1 24 13 38 21 SE 1008,8 0 0,0
22.09.2019 03:00:00 18,1 5,2 22 12 33 18 SE 1009,5 0 0,0
22.09.2019 02:00:00 18,3 5,8 22 12 36 19 SE 1010,0 0 0,0
22.09.2019 01:00:00 18,4 7,1 23 12 35 19 SE 1010,1 0 0,0
22.09.2019 00:00:00 19,1 8,3 18 10 29 16 SE 1010,6 0 0,0
21.09.2019 23:00:00 19,9 9,2 15 8 27 15 ESE 1011,2 0 0,0
21.09.2019 22:00:00 19,9 10,1 10 6 22 12 ESE 1011,4 0 0,0
21.09.2019 21:00:00 20,2 10,6 10 6 19 10 ESE 1011,5 0 0,0
21.09.2019 20:00:00 21,5 10,8 7 4 18 10 E 1011,3 28 0,0
21.09.2019 19:00:00 24,7 11,3 6 3 22 12 ESE 1011,5 60 0,0
21.09.2019 18:00:00 26,8 10,6 9 5 21 11 ESE 1011,7 60 0,0
21.09.2019 17:00:00 26,9 9,2 10 5 25 13 ESE 1012,7 60 0,0
21.09.2019 16:00:00 26,4 8,5 12 6 25 14 ESE 1013,3 60 0,0
21.09.2019 15:00:00 25,2 7,3 9 5 22 12 SE 1014,3 60 0,0
21.09.2019 14:00:00 23,5 5,8 11 6 24 13 ESE 1015,0 60 0,0
21.09.2019 13:00:00 21,6 5,7 10 5 23 12 ESE 1015,8 60 0,0
21.09.2019 12:00:00 18,5 5,1 12 6 24 13 ESE 1016,6 60 0,0
21.09.2019 11:00:00 15,9 4,6 12 7 29 16 ESE 1016,9 60 0,0
21.09.2019 10:00:00 13,9 3,6 12 6 25 14 ESE 1017,4 60 0,0
21.09.2019 09:00:00 10,7 3,1 11 6 23 12 ESE 1017,8 59 0,0
21.09.2019 08:00:00 9,4 2,8 11 6 19 10 E 1018,0 2 0,0
21.09.2019 07:00:00 9,0 2,9 10 6 17 9 E 1018,5 0 0,0
21.09.2019 06:00:00 9,2 2,6 7 4 15 8 E 1019,3 0 0,0
21.09.2019 05:00:00 10,3 3,0 9 5 21 11 E 1019,4 0 0,0
21.09.2019 04:00:00 10,3 3,0 9 5 17 9 E 1019,8 0 0,0
21.09.2019 03:00:00 11,5 3,2 9 5 19 11 E 1020,3 0 0,0
21.09.2019 02:00:00 12,3 3,2 11 6 23 12 E 1020,7 0 0,0
21.09.2019 01:00:00 13,0 3,4 11 6 22 12 E 1021,1 0 0,0
21.09.2019 00:00:00 13,3 3,5 9 5 25 14 ESE 1021,6 0 0,0
20.09.2019 23:00:00 14,2 3,7 13 7 29 15 E 1021,9 0 0,0
20.09.2019 22:00:00 14,7 3,2 15 8 34 18 E 1022,1 0 0,0
20.09.2019 21:00:00 15,5 2,3 12 7 25 14 E 1022,6 0 0,0
20.09.2019 20:00:00 16,6 2,1 11 6 26 14 ENE 1023,2 28 0,0
20.09.2019 19:00:00 18,7 3,1 10 5 26 14 E 1023,3 60 0,0
20.09.2019 18:00:00 19,7 3,3 10 6 26 14 E 1023,6 60 0,0
20.09.2019 17:00:00 19,8 2,9 14 8 29 16 ENE 1024,3 60 0,0
20.09.2019 16:00:00 19,6 3,1 10 6 29 16 E 1025,0 60 0,0
20.09.2019 15:00:00 19,3 2,8 13 7 30 16 E 1025,7 60 0,0
20.09.2019 14:00:00 18,9 3,7 7 4 27 14 E 1026,3 60 0,0
20.09.2019 13:00:00 16,9 3,1 12 6 27 15 ENE 1027,1 60 0,0
20.09.2019 12:00:00 16,0 4,0 10 5 21 11 E 1028,0 60 0,0
20.09.2019 11:00:00 14,2 5,6 7 4 17 9 E 1028,8 60 0,0
20.09.2019 10:00:00 11,4 5,9 8 4 21 11 ESE 1028,8 59 0,0
20.09.2019 09:00:00 8,2 5,0 7 4 15 8 E 1028,7 52 0,0
20.09.2019 08:00:00 6,9 4,7 7 4 16 9 E 1028,6 0 0,0
20.09.2019 07:00:00 6,7 4,8 8 5 13 7 ENE 1028,5 0 0,0
20.09.2019 06:00:00 7,4 5,0 8 4 12 7 NE 1028,7 0 0,0
20.09.2019 05:00:00 7,4 4,7 8 4 14 8 ENE 1028,9 0 0,0
20.09.2019 04:00:00 8,4 5,0 8 4 16 9 ENE 1029,2 0 0,0
20.09.2019 03:00:00 8,8 5,4 8 4 14 8 ENE 1029,5 0 0,0
20.09.2019 02:00:00 8,6 5,5 7 4 13 7 E 1029,7 0 0,0
20.09.2019 01:00:00 9,8 5,9 8 5 15 8 ENE 1030,0 0 0,0
20.09.2019 00:00:00 11,0 5,7 7 4 15 8 ENE 1030,0 0 0,0
19.09.2019 23:00:00 11,5 5,7 10 5 18 10 ENE 1030,0 0 0,0
19.09.2019 22:00:00 12,8 5,7 10 6 18 10 NE 1029,8 0 0,0
19.09.2019 21:00:00 12,7 5,6 9 5 15 8 NE 1029,7 0 0,0
19.09.2019 20:00:00 14,5 5,7 7 4 22 12 NE 1029,4 30 0,0
19.09.2019 19:00:00 15,9 6,2 12 6 26 14 NE 1029,2 41 0,0
19.09.2019 18:00:00 16,3 6,8 13 7 31 17 NNE 1029,2 23 0,0
19.09.2019 17:00:00 16,9 7,0 13 7 27 15 NNE 1029,5 40 0,0
19.09.2019 16:00:00 16,7 7,1 11 6 26 14 NE 1030,0 30 0,0
19.09.2019 15:00:00 16,0 7,0 12 7 19 11 ENE 1030,2 9 0,0
19.09.2019 14:00:00 15,5 6,8 7 4 27 14 NE 1030,6 8 0,0
19.09.2019 13:00:00 16,3 6,7 11 6 23 12 ENE 1031,0 47 0,0
19.09.2019 12:00:00 14,8 6,8 10 5 20 11 ENE 1030,9 60 0,0
19.09.2019 11:00:00 13,6 7,4 8 5 16 9 NE 1031,0 60 0,0
19.09.2019 10:00:00 11,4 7,4 7 4 14 7 E 1031,0 56 0,0
19.09.2019 09:00:00 8,8 6,9 4 2 12 6 ENE 1030,3 46 0,0
19.09.2019 08:00:00 8,0 6,1 7 4 13 7 ENE 1029,9 0 0,0
19.09.2019 07:00:00 8,2 6,6 9 5 13 7 ENE 1029,4 0 0,0
19.09.2019 06:00:00 8,1 6,2 8 5 14 8 NE 1029,3 0 0,0
19.09.2019 05:00:00 9,0 6,7 9 5 14 8 NE 1029,4 0 0,0
19.09.2019 04:00:00 9,3 6,7 9 5 13 7 NE 1029,3 0 0,0
19.09.2019 03:00:00 10,1 6,9 8 5 17 9 NE 1029,4 0 0,0
19.09.2019 02:00:00 10,6 6,9 11 6 18 10 NE 1029,3 0 0,0
19.09.2019 01:00:00 11,0 6,7 10 6 19 11 NE 1029,2 0 0,0
19.09.2019 00:00:00 11,6 6,6 10 6 23 12 NNE 1028,9 0 0,0
18.09.2019 23:00:00 12,4 6,5 12 6 23 12 NNE 1028,2 0 0,0
18.09.2019 22:00:00 13,0 6,1 11 6 29 16 NNE 1028,1 0 0,0
18.09.2019 21:00:00 14,1 5,8 16 8 30 16 NNE 1027,8 0 0,0
18.09.2019 20:00:00 15,0 5,8 14 8 27 14 N 1027,0 25 0,0
18.09.2019 19:00:00 15,7 6,5 13 7 32 17 N 1026,8 25 0,0
18.09.2019 18:00:00 16,1 6,2 16 9 29 16 N 1026,7 0 0,0
18.09.2019 17:00:00 16,7 4,8 12 7 24 13 N 1026,6 4 0,0
18.09.2019 16:00:00 16,9 4,3 12 7 26 14 NNE 1026,7 25 0,0
18.09.2019 15:00:00 16,6 4,1 12 7 21 12 NE 1027,0 22 0,0
18.09.2019 14:00:00 16,8 4,7 11 6 27 14 NNE 1027,5 29 0,0
18.09.2019 13:00:00 16,3 4,1 8 5 24 13 N 1027,8 54 0,0
18.09.2019 12:00:00 15,4 3,8 14 8 27 15 NE 1027,7 60 0,0
18.09.2019 11:00:00 14,4 5,6 11 6 19 11 NNE 1027,9 60 0,0
18.09.2019 10:00:00 12,6 12,6 7 4 14 7 NNE 1027,6 60 0,0
18.09.2019 09:00:00 8,5 8,5 6 3 8 4 NNE 1027,2 55 0,0
18.09.2019 08:00:00 7,2 7,2 4 2 8 4 N 1026,9 3 0,0
18.09.2019 07:00:00 7,1 7,1 4 2 6 3 SW 1026,5 0 0,0
18.09.2019 06:00:00 7,3 7,3 4 2 6 3 N 1026,3 0 0,0
18.09.2019 05:00:00 7,4 7,4 5 3 6 4 N 1026,1 0 0,0
18.09.2019 04:00:00 8,2 8,2 5 3 10 5 NNE 1026,0 0 0,0
18.09.2019 03:00:00 9,1 7,9 7 4 13 7 NNE 1026,0 0 0,0
18.09.2019 02:00:00 9,8 5,1 7 4 15 8 NNE 1025,9 0 0,0
18.09.2019 01:00:00 11,2 5,3 10 6 18 10 NNE 1025,8 0 0,0
18.09.2019 00:00:00 11,7 5,2 10 6 21 12 N 1025,4 0 0,0
17.09.2019 23:00:00 12,3 4,9 10 6 26 14 NNE 1025,1 0 0,0
17.09.2019 22:00:00 12,8 5,3 12 6 26 14 N 1024,8 0 0,0
17.09.2019 21:00:00 13,7 6,6 13 7 38 20 N 1024,3 0 0,0
17.09.2019 20:00:00 14,5 6,4 18 10 39 21 NNW 1023,6 21 0,0
17.09.2019 19:00:00 15,7 7,5 18 10 34 19 NNW 1023,2 42 0,0
17.09.2019 18:00:00 16,4 7,5 18 10 39 21 N 1022,7 34 0,0
17.09.2019 17:00:00 17,2 8,7 17 9 - - NNW 1022,6 32 0,0
17.09.2019 16:00:00 18,0 9,2 13 7 27 15 NNW 1022,3 21 0,0
17.09.2019 15:00:00 17,8 8,5 11 6 26 14 NNW 1022,2 14 0,0
17.09.2019 14:00:00 17,7 7,7 11 6 24 13 WNW 1022,4 48 0,0
17.09.2019 13:00:00 17,4 8,7 9 5 23 13 NW 1022,7 36 0,0
17.09.2019 12:00:00 16,2 16,2 8 5 20 11 NW 1022,7 35 0,0
17.09.2019 11:00:00 15,9 15,9 7 4 15 8 NNW 1022,6 60 0,0
17.09.2019 10:00:00 14,7 14,7 6 3 16 9 N 1022,4 60 0,0
17.09.2019 09:00:00 13,4 13,4 6 3 12 7 NNW 1021,9 60 0,0
17.09.2019 08:00:00 12,4 12,4 4 2 14 7 N 1021,7 8 0,0
17.09.2019 07:00:00 13,0 13,0 6 3 19 11 N 1021,3 0 0,0

tt = Température de l'air
td = dewpoint
ff = Vitesse du vent
fx = gusts
dd = Direction du vent
ppp = reduced air pressure
sd = Ensoleillement
rr = Quantités de précipitations

stations d'obs. à proximité